sensor_id;sensor_type;location;lat;lon;timestamp;pressure;altitude;pressure_sealevel;temperature;humidity
2785;BME280;57944;48.722;9.316;2023-06-10T00:01:03;97670.63;;;16.35;100.00
2785;BME280;57944;48.722;9.316;2023-06-10T00:03:36;97667.94;;;16.25;100.00
2785;BME280;57944;48.722;9.316;2023-06-10T00:06:09;97669.03;;;16.12;100.00
2785;BME280;57944;48.722;9.316;2023-06-10T00:08:39;97672.69;;;15.99;100.00
2785;BME280;57944;48.722;9.316;2023-06-10T00:11:10;97677.03;;;15.99;100.00
2785;BME280;57944;48.722;9.316;2023-06-10T00:13:41;97663.66;;;15.97;100.00
2785;BME280;57944;48.722;9.316;2023-06-10T00:16:12;97666.16;;;15.92;100.00
2785;BME280;57944;48.722;9.316;2023-06-10T00:18:47;97670.19;;;15.88;100.00
2785;BME280;57944;48.722;9.316;2023-06-10T00:21:18;97663.34;;;15.76;100.00
2785;BME280;57944;48.722;9.316;2023-06-10T00:23:49;97665.84;;;15.71;100.00
2785;BME280;57944;48.722;9.316;2023-06-10T00:26:20;97663.94;;;15.67;100.00
2785;BME280;57944;48.722;9.316;2023-06-10T00:28:50;97663.38;;;15.64;100.00
2785;BME280;57944;48.722;9.316;2023-06-10T00:31:21;97656.91;;;15.62;100.00
2785;BME280;57944;48.722;9.316;2023-06-10T00:33:56;97660.09;;;15.52;100.00
2785;BME280;57944;48.722;9.316;2023-06-10T00:36:27;97656.03;;;15.56;100.00
2785;BME280;57944;48.722;9.316;2023-06-10T00:38:58;97655.56;;;15.59;100.00
2785;BME280;57944;48.722;9.316;2023-06-10T00:41:29;97656.91;;;15.62;100.00
2785;BME280;57944;48.722;9.316;2023-06-10T00:44:01;97657.06;;;15.55;100.00
2785;BME280;57944;48.722;9.316;2023-06-10T00:46:32;97664.69;;;15.50;100.00
2785;BME280;57944;48.722;9.316;2023-06-10T00:49:07;97653.53;;;15.45;100.00
2785;BME280;57944;48.722;9.316;2023-06-10T00:51:38;97668.09;;;15.39;100.00
2785;BME280;57944;48.722;9.316;2023-06-10T00:54:09;97660.59;;;15.37;100.00
2785;BME280;57944;48.722;9.316;2023-06-10T00:56:41;97667.63;;;15.42;100.00
2785;BME280;57944;48.722;9.316;2023-06-10T00:59:12;97664.03;;;15.43;100.00
2785;BME280;57944;48.722;9.316;2023-06-10T01:01:43;97665.22;;;15.35;100.00
2785;BME280;57944;48.722;9.316;2023-06-10T01:04:17;97660.75;;;15.31;100.00
2785;BME280;57944;48.722;9.316;2023-06-10T01:06:53;97665.88;;;15.31;100.00
2785;BME280;57944;48.722;9.316;2023-06-10T01:09:33;97657.50;;;15.35;100.00
2785;BME280;57944;48.722;9.316;2023-06-10T01:12:16;97661.97;;;15.28;100.00
2785;BME280;57944;48.722;9.316;2023-06-10T01:14:49;97656.28;;;15.26;100.00
2785;BME280;57944;48.722;9.316;2023-06-10T01:17:20;97649.81;;;15.24;100.00
2785;BME280;57944;48.722;9.316;2023-06-10T01:19:57;97658.84;;;15.26;100.00
2785;BME280;57944;48.722;9.316;2023-06-10T01:22:31;97653.66;;;15.21;100.00
2785;BME280;57944;48.722;9.316;2023-06-10T01:25:05;97650.53;;;15.19;100.00
2785;BME280;57944;48.722;9.316;2023-06-10T01:27:38;97655.78;;;15.12;100.00
2785;BME280;57944;48.722;9.316;2023-06-10T01:30:15;97655.81;;;15.01;100.00
2785;BME280;57944;48.722;9.316;2023-06-10T01:32:51;97657.31;;;14.96;100.00
2785;BME280;57944;48.722;9.316;2023-06-10T01:35:25;97653.97;;;14.96;100.00
2785;BME280;57944;48.722;9.316;2023-06-10T01:37:59;97657.19;;;14.91;100.00
2785;BME280;57944;48.722;9.316;2023-06-10T01:40:31;97661.66;;;14.84;100.00
2785;BME280;57944;48.722;9.316;2023-06-10T01:43:02;97654.88;;;14.78;100.00
2785;BME280;57944;48.722;9.316;2023-06-10T01:45:33;97649.53;;;14.80;100.00
2785;BME280;57944;48.722;9.316;2023-06-10T01:48:04;97654.75;;;14.85;100.00
2785;BME280;57944;48.722;9.316;2023-06-10T01:50:35;97658.13;;;14.85;100.00
2785;BME280;57944;48.722;9.316;2023-06-10T01:53:08;97660.13;;;14.83;100.00
2785;BME280;57944;48.722;9.316;2023-06-10T01:55:39;97667.50;;;14.80;100.00
2785;BME280;57944;48.722;9.316;2023-06-10T01:58:09;97663.34;;;14.79;100.00
2785;BME280;57944;48.722;9.316;2023-06-10T02:00:40;97666.06;;;14.72;100.00
2785;BME280;57944;48.722;9.316;2023-06-10T02:03:11;97667.50;;;14.68;100.00
2785;BME280;57944;48.722;9.316;2023-06-10T02:05:42;97665.16;;;14.66;100.00
2785;BME280;57944;48.722;9.316;2023-06-10T02:08:16;97665.84;;;14.62;100.00
2785;BME280;57944;48.722;9.316;2023-06-10T02:10:47;97667.81;;;14.48;100.00
2785;BME280;57944;48.722;9.316;2023-06-10T02:13:17;97673.53;;;14.38;100.00
2785;BME280;57944;48.722;9.316;2023-06-10T02:15:52;97668.63;;;14.37;100.00
2785;BME280;57944;48.722;9.316;2023-06-10T02:18:23;97668.94;;;14.28;100.00
2785;BME280;57944;48.722;9.316;2023-06-10T02:20:54;97674.19;;;14.22;100.00
2785;BME280;57944;48.722;9.316;2023-06-10T02:23:29;97673.75;;;14.25;100.00
2785;BME280;57944;48.722;9.316;2023-06-10T02:25:59;97665.69;;;14.09;100.00
2785;BME280;57944;48.722;9.316;2023-06-10T02:28:30;97673.50;;;14.15;100.00
2785;BME280;57944;48.722;9.316;2023-06-10T02:31:00;97667.59;;;14.14;100.00
2785;BME280;57944;48.722;9.316;2023-06-10T02:33:31;97664.38;;;14.19;100.00
2785;BME280;57944;48.722;9.316;2023-06-10T02:36:02;97674.97;;;14.22;100.00
2785;BME280;57944;48.722;9.316;2023-06-10T02:38:35;97671.63;;;14.22;100.00
2785;BME280;57944;48.722;9.316;2023-06-10T02:41:06;97676.44;;;14.18;100.00
2785;BME280;57944;48.722;9.316;2023-06-10T02:43:36;97685.22;;;14.22;100.00
2785;BME280;57944;48.722;9.316;2023-06-10T02:46:07;97689.66;;;14.03;100.00
2785;BME280;57944;48.722;9.316;2023-06-10T02:48:41;97691.44;;;14.03;100.00
2785;BME280;57944;48.722;9.316;2023-06-10T02:51:19;97697.13;;;13.93;100.00
2785;BME280;57944;48.722;9.316;2023-06-10T02:53:57;97696.56;;;13.91;100.00
2785;BME280;57944;48.722;9.316;2023-06-10T02:56:28;97696.56;;;13.91;100.00
2785;BME280;57944;48.722;9.316;2023-06-10T02:59:01;97692.44;;;13.90;100.00
2785;BME280;57944;48.722;9.316;2023-06-10T03:01:35;97695.97;;;13.89;100.00
2785;BME280;57944;48.722;9.316;2023-06-10T03:04:09;97689.75;;;13.85;100.00
2785;BME280;57944;48.722;9.316;2023-06-10T03:06:47;97694.28;;;13.71;100.00
2785;BME280;57944;48.722;9.316;2023-06-10T03:09:27;97698.19;;;13.74;100.00
2785;BME280;57944;48.722;9.316;2023-06-10T03:11:59;97700.63;;;13.69;100.00
2785;BME280;57944;48.722;9.316;2023-06-10T03:14:35;97703.03;;;13.63;100.00
2785;BME280;57944;48.722;9.316;2023-06-10T03:17:06;97704.34;;;13.54;100.00
2785;BME280;57944;48.722;9.316;2023-06-10T03:19:40;97712.59;;;13.56;100.00
2785;BME280;57944;48.722;9.316;2023-06-10T03:22:12;97708.69;;;13.54;100.00
2785;BME280;57944;48.722;9.316;2023-06-10T03:25:00;97720.16;;;13.51;100.00
2785;BME280;57944;48.722;9.316;2023-06-10T03:27:31;97716.16;;;13.55;100.00
2785;BME280;57944;48.722;9.316;2023-06-10T03:30:08;97716.72;;;13.57;100.00
2785;BME280;57944;48.722;9.316;2023-06-10T03:32:40;97730.94;;;13.53;100.00
2785;BME280;57944;48.722;9.316;2023-06-10T03:35:13;97732.97;;;13.51;100.00
2785;BME280;57944;48.722;9.316;2023-06-10T03:37:45;97739.50;;;13.47;100.00
2785;BME280;57944;48.722;9.316;2023-06-10T03:40:18;97735.88;;;13.55;100.00
2785;BME280;57944;48.722;9.316;2023-06-10T03:42:49;97733.50;;;13.53;100.00
2785;BME280;57944;48.722;9.316;2023-06-10T03:45:19;97741.91;;;13.60;100.00
2785;BME280;57944;48.722;9.316;2023-06-10T03:47:50;97737.88;;;13.64;100.00
2785;BME280;57944;48.722;9.316;2023-06-10T03:50:24;97736.91;;;13.66;100.00
2785;BME280;57944;48.722;9.316;2023-06-10T03:52:55;97741.50;;;13.75;100.00
2785;BME280;57944;48.722;9.316;2023-06-10T03:55:29;97743.97;;;13.82;100.00
2785;BME280;57944;48.722;9.316;2023-06-10T03:58:01;97744.78;;;13.94;100.00
2785;BME280;57944;48.722;9.316;2023-06-10T04:00:32;97741.28;;;14.19;100.00
2785;BME280;57944;48.722;9.316;2023-06-10T04:03:09;97737.53;;;14.57;100.00
2785;BME280;57944;48.722;9.316;2023-06-10T04:05:51;97753.69;;;14.92;100.00
2785;BME280;57944;48.722;9.316;2023-06-10T04:08:22;97750.16;;;15.34;100.00
2785;BME280;57944;48.722;9.316;2023-06-10T04:10:55;97750.59;;;16.00;100.00
2785;BME280;57944;48.722;9.316;2023-06-10T04:13:27;97760.94;;;16.72;100.00
2785;BME280;57944;48.722;9.316;2023-06-10T04:15:59;97759.00;;;17.68;100.00
2785;BME280;57944;48.722;9.316;2023-06-10T04:18:30;97750.94;;;18.50;100.00
2785;BME280;57944;48.722;9.316;2023-06-10T04:21:05;97758.06;;;19.33;100.00
2785;BME280;57944;48.722;9.316;2023-06-10T04:23:36;97766.50;;;19.92;98.31
2785;BME280;57944;48.722;9.316;2023-06-10T04:26:10;97756.41;;;20.46;91.01
2785;BME280;57944;48.722;9.316;2023-06-10T04:28:43;97770.50;;;21.10;86.56
2785;BME280;57944;48.722;9.316;2023-06-10T04:31:14;97769.50;;;21.01;82.91
2785;BME280;57944;48.722;9.316;2023-06-10T04:33:46;97772.13;;;20.96;81.91
2785;BME280;57944;48.722;9.316;2023-06-10T04:36:16;97769.59;;;20.50;86.71
2785;BME280;57944;48.722;9.316;2023-06-10T04:38:47;97771.38;;;20.85;84.25
2785;BME280;57944;48.722;9.316;2023-06-10T04:41:22;97773.31;;;21.19;81.93
2785;BME280;57944;48.722;9.316;2023-06-10T04:43:53;97778.59;;;21.58;77.78
2785;BME280;57944;48.722;9.316;2023-06-10T04:46:25;97775.28;;;21.92;75.13
2785;BME280;57944;48.722;9.316;2023-06-10T04:48:58;97771.06;;;22.06;73.26
2785;BME280;57944;48.722;9.316;2023-06-10T04:51:29;97771.97;;;22.26;71.09
2785;BME280;57944;48.722;9.316;2023-06-10T04:54:00;97779.94;;;22.35;71.30
2785;BME280;57944;48.722;9.316;2023-06-10T04:56:34;97775.66;;;22.73;68.76
2785;BME280;57944;48.722;9.316;2023-06-10T04:59:05;97782.13;;;23.05;65.65
2785;BME280;57944;48.722;9.316;2023-06-10T05:01:35;97775.53;;;23.31;63.49
2785;BME280;57944;48.722;9.316;2023-06-10T05:04:06;97776.13;;;23.66;61.07
2785;BME280;57944;48.722;9.316;2023-06-10T05:06:36;97788.47;;;23.79;59.73
2785;BME280;57944;48.722;9.316;2023-06-10T05:09:07;97776.91;;;24.04;58.31
2785;BME280;57944;48.722;9.316;2023-06-10T05:11:40;97772.63;;;24.27;57.81
2785;BME280;57944;48.722;9.316;2023-06-10T05:14:11;97774.75;;;24.86;54.82
2785;BME280;57944;48.722;9.316;2023-06-10T05:16:44;97780.50;;;25.38;52.47
2785;BME280;57944;48.722;9.316;2023-06-10T05:19:14;97773.63;;;25.56;51.80
2785;BME280;57944;48.722;9.316;2023-06-10T05:21:46;97766.50;;;25.84;50.00
2785;BME280;57944;48.722;9.316;2023-06-10T05:24:17;97773.38;;;26.02;48.74
2785;BME280;57944;48.722;9.316;2023-06-10T05:26:50;97770.97;;;26.37;48.94
2785;BME280;57944;48.722;9.316;2023-06-10T05:29:21;97780.53;;;26.73;47.84
2785;BME280;57944;48.722;9.316;2023-06-10T05:31:51;97784.88;;;26.24;48.87
2785;BME280;57944;48.722;9.316;2023-06-10T05:34:24;97784.28;;;26.04;49.40
2785;BME280;57944;48.722;9.316;2023-06-10T05:36:55;97779.16;;;26.44;47.70
2785;BME280;57944;48.722;9.316;2023-06-10T05:39:25;97781.16;;;26.47;47.62
2785;BME280;57944;48.722;9.316;2023-06-10T05:41:58;97778.44;;;26.92;46.76
2785;BME280;57944;48.722;9.316;2023-06-10T05:44:30;97786.63;;;27.08;45.86
2785;BME280;57944;48.722;9.316;2023-06-10T05:47:00;97784.69;;;27.23;45.83
2785;BME280;57944;48.722;9.316;2023-06-10T05:49:31;97787.19;;;27.54;44.83
2785;BME280;57944;48.722;9.316;2023-06-10T05:52:02;97784.75;;;27.83;43.57
2785;BME280;57944;48.722;9.316;2023-06-10T05:54:32;97790.06;;;28.31;42.31
2785;BME280;57944;48.722;9.316;2023-06-10T05:57:06;97792.44;;;28.70;41.71
2785;BME280;57944;48.722;9.316;2023-06-10T05:59:37;97795.56;;;28.93;40.60
2785;BME280;57944;48.722;9.316;2023-06-10T06:02:08;97798.50;;;29.22;39.74
2785;BME280;57944;48.722;9.316;2023-06-10T06:04:39;97791.78;;;29.33;39.64
2785;BME280;57944;48.722;9.316;2023-06-10T06:07:09;97796.84;;;29.38;39.60
2785;BME280;57944;48.722;9.316;2023-06-10T06:09:40;97788.66;;;29.60;38.85
2785;BME280;57944;48.722;9.316;2023-06-10T06:12:13;97779.28;;;29.93;38.15
2785;BME280;57944;48.722;9.316;2023-06-10T06:14:44;97795.22;;;30.54;37.07
2785;BME280;57944;48.722;9.316;2023-06-10T06:17:16;97791.16;;;30.69;37.10
2785;BME280;57944;48.722;9.316;2023-06-10T06:19:47;97786.22;;;31.16;36.18
2785;BME280;57944;48.722;9.316;2023-06-10T06:22:18;97788.50;;;29.99;38.13
2785;BME280;57944;48.722;9.316;2023-06-10T06:24:49;97791.81;;;30.08;38.06
2785;BME280;57944;48.722;9.316;2023-06-10T06:27:23;97795.94;;;30.30;37.38
2785;BME280;57944;48.722;9.316;2023-06-10T06:29:53;97797.66;;;30.59;37.38
2785;BME280;57944;48.722;9.316;2023-06-10T06:32:25;97791.19;;;30.93;37.03
2785;BME280;57944;48.722;9.316;2023-06-10T06:34:56;97797.50;;;31.29;36.40
2785;BME280;57944;48.722;9.316;2023-06-10T06:37:26;97792.25;;;31.17;36.33
2785;BME280;57944;48.722;9.316;2023-06-10T06:40:14;97797.34;;;31.63;35.39
2785;BME280;57944;48.722;9.316;2023-06-10T06:42:47;97797.38;;;31.50;35.57
2785;BME280;57944;48.722;9.316;2023-06-10T06:45:50;97793.56;;;32.04;35.08
2785;BME280;57944;48.722;9.316;2023-06-10T06:48:21;97796.59;;;32.50;33.76
2785;BME280;57944;48.722;9.316;2023-06-10T06:50:52;97794.34;;;32.84;33.33
2785;BME280;57944;48.722;9.316;2023-06-10T06:53:24;97795.63;;;33.06;33.62
2785;BME280;57944;48.722;9.316;2023-06-10T06:55:59;97801.16;;;33.01;33.91
2785;BME280;57944;48.722;9.316;2023-06-10T06:58:33;97795.84;;;33.17;32.71
2785;BME280;57944;48.722;9.316;2023-06-10T07:01:03;97800.66;;;33.66;32.39
2785;BME280;57944;48.722;9.316;2023-06-10T07:03:34;97805.31;;;34.15;31.93
2785;BME280;57944;48.722;9.316;2023-06-10T07:06:05;97805.84;;;34.24;31.56
2785;BME280;57944;48.722;9.316;2023-06-10T07:08:36;97809.25;;;33.63;32.16
2785;BME280;57944;48.722;9.316;2023-06-10T07:11:07;97811.53;;;33.09;32.88
2785;BME280;57944;48.722;9.316;2023-06-10T07:13:41;97806.44;;;32.21;33.91
2785;BME280;57944;48.722;9.316;2023-06-10T07:16:12;97807.22;;;32.85;33.51
2785;BME280;57944;48.722;9.316;2023-06-10T07:18:42;97804.00;;;32.60;33.57
2785;BME280;57944;48.722;9.316;2023-06-10T07:21:13;97797.16;;;31.31;35.64
2785;BME280;57944;48.722;9.316;2023-06-10T07:23:44;97796.34;;;31.02;36.18
2785;BME280;57944;48.722;9.316;2023-06-10T07:26:15;97788.75;;;31.01;35.95
2785;BME280;57944;48.722;9.316;2023-06-10T07:28:48;97795.09;;;31.12;36.14
2785;BME280;57944;48.722;9.316;2023-06-10T07:31:18;97805.41;;;31.29;36.22
2785;BME280;57944;48.722;9.316;2023-06-10T07:33:49;97801.09;;;30.84;36.77
2785;BME280;57944;48.722;9.316;2023-06-10T07:36:20;97792.56;;;30.30;37.51
2785;BME280;57944;48.722;9.316;2023-06-10T07:38:50;97792.50;;;31.00;36.89
2785;BME280;57944;48.722;9.316;2023-06-10T07:41:22;97792.66;;;32.44;34.69
2785;BME280;57944;48.722;9.316;2023-06-10T07:43:56;97802.50;;;32.94;33.49
2785;BME280;57944;48.722;9.316;2023-06-10T07:46:26;97798.56;;;32.09;34.64
2785;BME280;57944;48.722;9.316;2023-06-10T07:48:57;97799.59;;;31.76;35.33
2785;BME280;57944;48.722;9.316;2023-06-10T07:51:27;97796.44;;;31.99;35.03
2785;BME280;57944;48.722;9.316;2023-06-10T07:53:58;97798.75;;;32.16;34.76
2785;BME280;57944;48.722;9.316;2023-06-10T07:56:28;97791.97;;;32.15;34.63
2785;BME280;57944;48.722;9.316;2023-06-10T07:59:02;97793.34;;;32.72;34.15
2785;BME280;57944;48.722;9.316;2023-06-10T08:01:32;97797.72;;;32.49;34.25
2785;BME280;57944;48.722;9.316;2023-06-10T08:04:05;97799.44;;;32.13;34.54
2785;BME280;57944;48.722;9.316;2023-06-10T08:06:36;97793.75;;;33.26;33.29
2785;BME280;57944;48.722;9.316;2023-06-10T08:09:07;97795.09;;;34.13;31.74
2785;BME280;57944;48.722;9.316;2023-06-10T08:11:37;97793.31;;;34.67;30.83
2785;BME280;57944;48.722;9.316;2023-06-10T08:14:10;97790.78;;;35.27;30.22
2785;BME280;57944;48.722;9.316;2023-06-10T08:16:41;97790.13;;;35.07;30.60
2785;BME280;57944;48.722;9.316;2023-06-10T08:19:12;97787.75;;;35.29;29.78
2785;BME280;57944;48.722;9.316;2023-06-10T08:21:43;97788.25;;;35.08;30.17
2785;BME280;57944;48.722;9.316;2023-06-10T08:24:13;97785.13;;;35.32;30.29
2785;BME280;57944;48.722;9.316;2023-06-10T08:26:46;97786.03;;;34.37;31.33
2785;BME280;57944;48.722;9.316;2023-06-10T08:29:19;97780.94;;;34.52;31.47
2785;BME280;57944;48.722;9.316;2023-06-10T08:31:50;97784.09;;;34.34;31.81
2785;BME280;57944;48.722;9.316;2023-06-10T08:34:21;97775.78;;;35.08;30.37
2785;BME280;57944;48.722;9.316;2023-06-10T08:36:51;97780.19;;;35.61;29.48
2785;BME280;57944;48.722;9.316;2023-06-10T08:39:23;97784.84;;;37.12;27.96
2785;BME280;57944;48.722;9.316;2023-06-10T08:42:04;97776.38;;;36.92;27.58
2785;BME280;57944;48.722;9.316;2023-06-10T08:44:38;97781.38;;;36.05;28.63
2785;BME280;57944;48.722;9.316;2023-06-10T08:47:14;97775.03;;;35.75;28.56
2785;BME280;57944;48.722;9.316;2023-06-10T08:49:46;97773.22;;;35.83;28.82
2785;BME280;57944;48.722;9.316;2023-06-10T08:52:19;97774.69;;;35.13;29.45
2785;BME280;57944;48.722;9.316;2023-06-10T08:54:52;97771.38;;;34.93;30.22
2785;BME280;57944;48.722;9.316;2023-06-10T08:57:25;97773.66;;;35.21;30.02
2785;BME280;57944;48.722;9.316;2023-06-10T09:00:00;97774.75;;;35.84;28.88
2785;BME280;57944;48.722;9.316;2023-06-10T09:02:32;97773.84;;;35.69;29.35
2785;BME280;57944;48.722;9.316;2023-06-10T09:05:04;97775.94;;;34.20;30.94
2785;BME280;57944;48.722;9.316;2023-06-10T09:07:36;97766.25;;;34.77;30.33
2785;BME280;57944;48.722;9.316;2023-06-10T09:10:07;97764.72;;;35.33;30.04
2785;BME280;57944;48.722;9.316;2023-06-10T09:12:38;97770.34;;;35.99;29.03
2785;BME280;57944;48.722;9.316;2023-06-10T09:15:12;97764.81;;;36.63;27.92
2785;BME280;57944;48.722;9.316;2023-06-10T09:17:44;97760.00;;;37.92;26.79
2785;BME280;57944;48.722;9.316;2023-06-10T09:20:15;97763.66;;;36.60;27.83
2785;BME280;57944;48.722;9.316;2023-06-10T09:22:46;97767.31;;;33.61;31.78
2785;BME280;57944;48.722;9.316;2023-06-10T09:25:17;97764.56;;;34.65;30.13
2785;BME280;57944;48.722;9.316;2023-06-10T09:27:49;97765.88;;;34.29;30.76
2785;BME280;57944;48.722;9.316;2023-06-10T09:30:28;97760.63;;;33.48;31.75
2785;BME280;57944;48.722;9.316;2023-06-10T09:33:01;97759.66;;;33.98;31.67
2785;BME280;57944;48.722;9.316;2023-06-10T09:35:33;97767.00;;;34.55;30.33
2785;BME280;57944;48.722;9.316;2023-06-10T09:38:04;97762.84;;;35.67;28.86
2785;BME280;57944;48.722;9.316;2023-06-10T09:40:49;97757.28;;;37.52;27.34
2785;BME280;57944;48.722;9.316;2023-06-10T09:43:20;97762.25;;;37.72;27.06
2785;BME280;57944;48.722;9.316;2023-06-10T09:45:56;97760.41;;;38.62;25.94
2785;BME280;57944;48.722;9.316;2023-06-10T09:48:27;97759.44;;;37.22;26.82
2785;BME280;57944;48.722;9.316;2023-06-10T09:50:58;97759.44;;;37.18;27.18
2785;BME280;57944;48.722;9.316;2023-06-10T09:53:28;97750.78;;;37.46;26.60
2785;BME280;57944;48.722;9.316;2023-06-10T09:56:03;97756.97;;;36.81;27.13
2785;BME280;57944;48.722;9.316;2023-06-10T09:58:38;97753.09;;;36.67;28.00
2785;BME280;57944;48.722;9.316;2023-06-10T10:01:14;97756.63;;;38.09;26.16
2785;BME280;57944;48.722;9.316;2023-06-10T10:03:46;97748.25;;;37.93;26.63
2785;BME280;57944;48.722;9.316;2023-06-10T10:06:18;97746.63;;;38.92;24.87
2785;BME280;57944;48.722;9.316;2023-06-10T10:08:51;97735.63;;;38.79;25.28
2785;BME280;57944;48.722;9.316;2023-06-10T10:11:22;97745.94;;;38.66;25.42
2785;BME280;57944;48.722;9.316;2023-06-10T10:13:54;97746.00;;;37.95;26.15
2785;BME280;57944;48.722;9.316;2023-06-10T10:16:32;97741.66;;;36.56;26.79
2785;BME280;57944;48.722;9.316;2023-06-10T10:19:10;97736.63;;;35.58;27.93
2785;BME280;57944;48.722;9.316;2023-06-10T10:21:47;97733.97;;;35.25;28.48
2785;BME280;57944;48.722;9.316;2023-06-10T10:24:21;97729.09;;;35.64;28.29
2785;BME280;57944;48.722;9.316;2023-06-10T10:26:54;97726.78;;;34.99;28.42
2785;BME280;57944;48.722;9.316;2023-06-10T10:29:33;97725.63;;;35.60;28.34
2785;BME280;57944;48.722;9.316;2023-06-10T10:32:11;97728.91;;;36.28;27.75
2785;BME280;57944;48.722;9.316;2023-06-10T10:34:49;97728.75;;;36.58;26.83
2785;BME280;57944;48.722;9.316;2023-06-10T10:37:20;97735.03;;;36.98;26.72
2785;BME280;57944;48.722;9.316;2023-06-10T10:39:51;97726.69;;;35.93;27.63
2785;BME280;57944;48.722;9.316;2023-06-10T10:42:22;97735.34;;;35.49;27.67
2785;BME280;57944;48.722;9.316;2023-06-10T10:44:53;97718.84;;;34.99;27.86
2785;BME280;57944;48.722;9.316;2023-06-10T10:47:28;97728.16;;;34.85;28.38
2785;BME280;57944;48.722;9.316;2023-06-10T10:50:00;97718.44;;;34.17;29.47
2785;BME280;57944;48.722;9.316;2023-06-10T10:52:51;97721.25;;;34.54;28.86
2785;BME280;57944;48.722;9.316;2023-06-10T10:55:23;97723.94;;;36.19;27.11
2785;BME280;57944;48.722;9.316;2023-06-10T10:57:55;97728.44;;;37.69;25.07
2785;BME280;57944;48.722;9.316;2023-06-10T11:00:30;97721.63;;;38.25;24.55
2785;BME280;57944;48.722;9.316;2023-06-10T11:03:06;97722.03;;;38.13;24.24
2785;BME280;57944;48.722;9.316;2023-06-10T11:05:40;97721.63;;;37.89;23.33
2785;BME280;57944;48.722;9.316;2023-06-10T11:08:12;97714.66;;;38.96;23.39
2785;BME280;57944;48.722;9.316;2023-06-10T11:10:51;97719.34;;;37.91;24.16
2785;BME280;57944;48.722;9.316;2023-06-10T11:13:23;97706.41;;;38.43;24.12
2785;BME280;57944;48.722;9.316;2023-06-10T11:15:58;97713.25;;;37.73;24.68
2785;BME280;57944;48.722;9.316;2023-06-10T11:18:38;97710.13;;;38.82;23.72
2785;BME280;57944;48.722;9.316;2023-06-10T11:21:09;97719.44;;;39.33;23.16
2785;BME280;57944;48.722;9.316;2023-06-10T11:23:41;97696.91;;;40.42;21.26
2785;BME280;57944;48.722;9.316;2023-06-10T11:26:17;97714.88;;;41.37;20.93
2785;BME280;57944;48.722;9.316;2023-06-10T11:29:04;97709.41;;;40.86;21.77
2785;BME280;57944;48.722;9.316;2023-06-10T11:31:46;97704.50;;;38.40;23.19
2785;BME280;57944;48.722;9.316;2023-06-10T11:34:25;97702.88;;;37.18;24.97
2785;BME280;57944;48.722;9.316;2023-06-10T11:36:57;97704.84;;;37.42;24.63
2785;BME280;57944;48.722;9.316;2023-06-10T11:39:28;97692.72;;;37.52;25.01
2785;BME280;57944;48.722;9.316;2023-06-10T11:41:59;97691.97;;;38.30;24.02
2785;BME280;57944;48.722;9.316;2023-06-10T11:44:29;97694.94;;;37.39;25.35
2785;BME280;57944;48.722;9.316;2023-06-10T11:47:02;97692.03;;;36.16;26.28
2785;BME280;57944;48.722;9.316;2023-06-10T11:49:35;97687.06;;;34.99;27.50
2785;BME280;57944;48.722;9.316;2023-06-10T11:52:06;97683.91;;;37.30;24.84
2785;BME280;57944;48.722;9.316;2023-06-10T11:54:37;97691.19;;;38.40;23.43
2785;BME280;57944;48.722;9.316;2023-06-10T11:57:08;97695.69;;;37.25;25.05
2785;BME280;57944;48.722;9.316;2023-06-10T11:59:38;97687.81;;;34.42;28.11
2785;BME280;57944;48.722;9.316;2023-06-10T12:02:15;97689.13;;;32.15;31.39
2785;BME280;57944;48.722;9.316;2023-06-10T12:04:49;97681.63;;;32.49;31.16
2785;BME280;57944;48.722;9.316;2023-06-10T12:07:21;97692.06;;;32.97;30.69
2785;BME280;57944;48.722;9.316;2023-06-10T12:09:59;97677.13;;;34.09;29.95
2785;BME280;57944;48.722;9.316;2023-06-10T12:12:50;97685.16;;;35.29;27.56
2785;BME280;57944;48.722;9.316;2023-06-10T12:15:24;97682.06;;;36.02;26.41
2785;BME280;57944;48.722;9.316;2023-06-10T12:17:56;97681.78;;;36.70;26.10
2785;BME280;57944;48.722;9.316;2023-06-10T12:20:31;97680.56;;;35.23;27.99
2785;BME280;57944;48.722;9.316;2023-06-10T12:23:09;97680.22;;;34.64;28.62
2785;BME280;57944;48.722;9.316;2023-06-10T12:25:47;97687.75;;;34.62;29.11
2785;BME280;57944;48.722;9.316;2023-06-10T12:28:21;97669.38;;;35.77;27.27
2785;BME280;57944;48.722;9.316;2023-06-10T12:31:05;97673.03;;;36.07;26.97
2785;BME280;57944;48.722;9.316;2023-06-10T12:33:36;97676.25;;;36.37;26.51
2785;BME280;57944;48.722;9.316;2023-06-10T12:36:16;97674.78;;;36.43;26.42
2785;BME280;57944;48.722;9.316;2023-06-10T12:38:48;97663.41;;;35.50;26.72
2785;BME280;57944;48.722;9.316;2023-06-10T12:41:20;97663.59;;;35.68;26.74
2785;BME280;57944;48.722;9.316;2023-06-10T12:43:52;97667.81;;;36.17;26.34
2785;BME280;57944;48.722;9.316;2023-06-10T12:46:22;97665.00;;;37.99;24.40
2785;BME280;57944;48.722;9.316;2023-06-10T12:48:53;97666.09;;;38.45;24.11
2785;BME280;57944;48.722;9.316;2023-06-10T12:51:26;97653.13;;;38.58;23.77
2785;BME280;57944;48.722;9.316;2023-06-10T12:53:57;97666.06;;;38.56;23.87
2785;BME280;57944;48.722;9.316;2023-06-10T12:56:27;97657.13;;;39.09;22.34
2785;BME280;57944;48.722;9.316;2023-06-10T12:58:58;97665.38;;;38.05;23.26
2785;BME280;57944;48.722;9.316;2023-06-10T13:01:28;97661.53;;;38.46;23.35
2785;BME280;57944;48.722;9.316;2023-06-10T13:04:00;97659.41;;;39.07;22.95
2785;BME280;57944;48.722;9.316;2023-06-10T13:06:33;97658.34;;;38.83;22.28
2785;BME280;57944;48.722;9.316;2023-06-10T13:09:06;97655.31;;;38.77;22.89
2785;BME280;57944;48.722;9.316;2023-06-10T13:11:37;97652.63;;;36.91;24.38
2785;BME280;57944;48.722;9.316;2023-06-10T13:14:08;97645.50;;;35.77;26.30
2785;BME280;57944;48.722;9.316;2023-06-10T13:16:40;97639.25;;;34.88;27.34
2785;BME280;57944;48.722;9.316;2023-06-10T13:19:12;97632.31;;;34.19;27.47
2785;BME280;57944;48.722;9.316;2023-06-10T13:21:45;97639.13;;;34.20;28.04
2785;BME280;57944;48.722;9.316;2023-06-10T13:24:16;97641.50;;;33.37;28.84
2785;BME280;57944;48.722;9.316;2023-06-10T13:26:48;97642.78;;;32.85;29.36
2785;BME280;57944;48.722;9.316;2023-06-10T13:29:18;97646.03;;;32.43;30.19
2785;BME280;57944;48.722;9.316;2023-06-10T13:31:49;97641.44;;;32.40;30.36
2785;BME280;57944;48.722;9.316;2023-06-10T13:34:19;97641.91;;;32.10;30.98
2785;BME280;57944;48.722;9.316;2023-06-10T13:36:53;97638.16;;;32.11;31.15